Time;durP1;ratioP1;P1;durP2;ratioP2;P2;SDS_P1;SDS_P2;PMS_P1;PMS_P2;Temp;Humidity;BMP_temperature;BMP_pressure;BME280_temperature;BME280_humidity;BME280_pressure;Samples;Min_cycle;Max_cycle;Signal;HPM_P1;HPM_P2
2023/01/20 00:01:48;;;;;;;46.00;26.30;;;;;;;-0.32;93.09;100391.63;7398850;19;20018;-71
2023/01/20 00:04:17;;;;;;;40.97;24.77;;;;;;;-0.30;93.14;100408.00;7396039;19;20015;-71
2023/01/20 00:06:48;;;;;;;42.55;25.02;;;;;;;-0.30;93.06;100400.28;7398565;19;20078;-71
2023/01/20 00:09:19;;;;;;;41.28;24.30;;;;;;;-0.29;93.04;100402.00;7396191;19;20086;-70
2023/01/20 00:11:48;;;;;;;44.47;25.15;;;;;;;-0.28;93.20;100403.72;7395743;19;20007;-71
2023/01/20 00:14:16;;;;;;;40.72;24.25;;;;;;;-0.27;93.24;100409.78;7396801;19;20425;-71
2023/01/20 00:16:45;;;;;;;44.17;25.27;;;;;;;-0.24;93.39;100409.81;7395708;19;20078;-70
2023/01/20 00:19:15;;;;;;;40.75;25.60;;;;;;;-0.25;93.25;100414.13;7397951;19;20098;-71
2023/01/20 00:21:44;;;;;;;42.83;25.10;;;;;;;-0.24;93.36;100417.53;7398355;19;20018;-70
2023/01/20 00:24:15;;;;;;;39.97;24.20;;;;;;;-0.26;93.45;100412.38;7396233;19;20032;-70
2023/01/20 00:26:43;;;;;;;39.92;24.13;;;;;;;-0.25;93.33;100415.81;7397676;19;20086;-70
2023/01/20 00:29:12;;;;;;;40.70;22.70;;;;;;;-0.24;93.59;100418.44;7396041;19;20031;-70
2023/01/20 00:31:40;;;;;;;45.35;24.70;;;;;;;-0.25;93.65;100419.28;7398204;19;20549;-71
2023/01/20 00:34:09;;;;;;;40.17;23.25;;;;;;;-0.24;93.79;100417.53;7395922;19;20092;-71
2023/01/20 00:36:37;;;;;;;39.80;21.90;;;;;;;-0.23;93.80;100409.88;7397627;19;20022;-71
2023/01/20 00:39:06;;;;;;;42.17;23.15;;;;;;;-0.22;93.94;100421.03;7397125;19;20093;-70
2023/01/20 00:41:37;;;;;;;46.85;24.25;;;;;;;-0.21;93.80;100428.78;7397202;19;20556;-70
2023/01/20 00:44:06;;;;;;;41.20;22.40;;;;;;;-0.19;93.74;100433.97;7395838;19;20505;-70
2023/01/20 00:46:34;;;;;;;41.90;23.52;;;;;;;-0.19;93.75;100431.38;7396937;19;20093;-70
2023/01/20 00:49:03;;;;;;;37.42;23.42;;;;;;;-0.17;93.71;100434.88;7395751;19;20092;-70
2023/01/20 00:51:31;;;;;;;41.45;24.10;;;;;;;-0.17;93.77;100440.88;7396784;19;20423;-70
2023/01/20 00:54:00;;;;;;;39.22;24.23;;;;;;;-0.15;93.77;100440.03;7395939;19;20022;-69
2023/01/20 00:56:28;;;;;;;37.88;22.02;;;;;;;-0.14;94.01;100447.81;7396703;19;20014;-69
2023/01/20 00:58:59;;;;;;;44.05;22.60;;;;;;;-0.15;93.82;100450.34;7395229;19;20078;-70
2023/01/20 01:01:28;;;;;;;43.03;23.48;;;;;;;-0.12;93.89;100453.00;7396774;19;20027;-70
2023/01/20 01:03:56;;;;;;;35.72;21.00;;;;;;;-0.11;94.03;100452.16;7394840;19;20501;-70
2023/01/20 01:06:25;;;;;;;34.92;22.40;;;;;;;-0.10;93.97;100464.19;7396508;19;20078;-69
2023/01/20 01:08:53;;;;;;;34.53;22.23;;;;;;;-0.11;93.98;100462.50;7395140;19;20086;-69
2023/01/20 01:11:21;;;;;;;36.83;22.33;;;;;;;-0.11;94.22;100465.91;7396530;19;20015;-70
2023/01/20 01:13:50;;;;;;;38.80;22.25;;;;;;;-0.11;93.85;100472.81;7394227;19;20086;-70
2023/01/20 01:16:21;;;;;;;35.33;22.05;;;;;;;-0.11;94.27;100473.66;7396390;19;20149;-71
2023/01/20 01:18:49;;;;;;;39.45;23.45;;;;;;;-0.11;94.28;100483.13;7396574;19;20070;-70
2023/01/20 01:21:18;;;;;;;41.50;22.52;;;;;;;-0.12;94.12;100482.22;7396191;19;20082;-70
2023/01/20 01:23:47;;;;;;;41.45;22.45;;;;;;;-0.13;94.27;100477.06;7394813;19;20077;-70
2023/01/20 01:26:16;;;;;;;43.10;21.88;;;;;;;-0.12;94.55;100478.78;7395636;19;20037;-70
2023/01/20 01:28:45;;;;;;;42.25;21.58;;;;;;;-0.13;94.61;100488.22;7395088;19;20074;-70
2023/01/20 01:31:13;;;;;;;38.67;22.10;;;;;;;-0.12;94.50;100491.69;7395521;19;20114;-70
2023/01/20 01:33:44;;;;;;;37.53;21.92;;;;;;;-0.13;94.46;100490.81;7394909;19;20031;-70
2023/01/20 01:36:16;;;;;;;45.60;22.60;;;;;;;-0.13;95.21;100492.53;7393776;19;20031;-71
2023/01/20 01:38:44;;;;;;;45.42;23.38;;;;;;;-0.14;95.67;100490.78;7395985;19;20078;-70
2023/01/20 01:41:14;;;;;;;47.97;24.63;;;;;;;-0.14;95.27;100490.78;7396419;19;20032;-70
2023/01/20 01:44:02;;;;;;;44.70;22.95;;;;;;;-0.15;95.59;100484.78;7394547;19;20102;-70
2023/01/20 01:46:31;;;;;;;43.42;21.63;;;;;;;-0.12;95.20;100491.69;7395854;19;20082;-69
2023/01/20 01:49:04;;;;;;;43.47;22.58;;;;;;;-0.11;95.04;100491.72;7393213;19;20540;-69
2023/01/20 01:51:36;;;;;;;37.63;20.30;;;;;;;-0.09;94.63;100502.03;7395011;19;20509;-70
2023/01/20 01:54:10;;;;;;;44.22;21.52;;;;;;;-0.07;94.70;100508.97;7394313;19;20019;-70
2023/01/20 01:56:40;;;;;;;39.67;21.63;;;;;;;-0.05;94.52;100511.56;7395608;19;20090;-70
2023/01/20 01:59:09;;;;;;;43.75;22.65;;;;;;;-0.03;94.84;100515.91;7394926;19;20011;-69
2023/01/20 02:01:41;;;;;;;40.95;22.75;;;;;;;-0.02;94.43;100516.81;7394914;19;20078;-70
2023/01/20 02:04:14;;;;;;;40.63;21.52;;;;;;;0.00;94.60;100520.28;7392874;19;20085;-70
2023/01/20 02:06:47;;;;;;;40.15;21.55;;;;;;;0.02;94.37;100517.72;7393591;19;20387;-70
2023/01/20 02:09:16;;;;;;;37.63;20.88;;;;;;;0.04;94.26;100518.59;7394070;19;20110;-70
2023/01/20 02:11:48;;;;;;;39.83;22.88;;;;;;;0.04;94.46;100524.66;7393674;19;20081;-70
2023/01/20 02:14:18;;;;;;;50.28;21.88;;;;;;;0.06;94.33;100522.94;7393707;19;20481;-68
2023/01/20 02:17:01;;;;;;;41.08;21.10;;;;;;;0.05;94.68;100531.56;7394241;19;20533;-68
2023/01/20 02:19:56;;;;;;;49.95;24.20;;;;;;;0.06;94.76;100532.41;7394892;19;20094;-68
2023/01/20 02:22:31;;;;;;;;;;;;;;;0.04;94.70;100544.41;7395746;19;20070;-68
2023/01/20 02:25:30;;;;;;;44.15;22.15;;;;;;;0.00;94.61;100533.19;7392680;19;19931;-68
2023/01/20 02:28:36;;;;;;;42.33;23.13;;;;;;;0.00;94.23;100543.50;7394310;19;20436;-68
2023/01/20 02:31:15;;;;;;;;;;;;;;;-0.01;94.24;100552.94;7395459;19;20018;-68
2023/01/20 02:33:53;;;;;;;42.55;22.13;;;;;;;-0.01;93.98;100558.09;7393381;19;19986;-68
2023/01/20 02:36:28;;;;;;;46.22;25.05;;;;;;;0.00;94.13;100561.56;7393897;19;20074;-68
2023/01/20 02:39:02;;;;;;;47.67;23.95;;;;;;;0.01;94.14;100560.69;7393864;19;20074;-67
2023/01/20 02:41:40;;;;;;;51.92;25.55;;;;;;;0.01;94.04;100560.69;7393753;19;20017;-68
2023/01/20 02:44:19;;;;;;;44.58;21.63;;;;;;;0.02;94.06;100572.75;7392811;19;20066;-68
2023/01/20 02:46:53;;;;;;;43.22;23.67;;;;;;;0.03;93.83;100568.47;7393965;19;20066;-67
2023/01/20 02:49:28;;;;;;;39.45;22.25;;;;;;;0.03;93.64;100565.91;7392318;19;20082;-68
2023/01/20 02:52:03;;;;;;;41.80;23.35;;;;;;;0.04;93.61;100571.09;7393247;19;20549;-68
2023/01/20 02:54:33;;;;;;;;;;;;;;;0.02;93.57;100575.34;7392880;19;20081;-68
2023/01/20 02:57:04;;;;;;;43.00;22.38;;;;;;;0.01;93.38;100573.59;7391073;19;19986;-68
2023/01/20 02:59:35;;;;;;;46.67;23.52;;;;;;;-0.02;93.44;100576.13;7393902;19;20018;-67
2023/01/20 03:02:07;;;;;;;48.13;23.10;;;;;;;-0.03;93.21;100576.97;7393772;19;20018;-67
2023/01/20 03:04:45;;;;;;;41.25;23.08;;;;;;;-0.01;93.30;100581.31;7390813;19;20453;-68
2023/01/20 03:07:15;;;;;;;42.05;23.95;;;;;;;0.00;93.26;100584.78;7392748;19;20022;-68
2023/01/20 03:09:48;;;;;;;46.17;24.20;;;;;;;-0.02;93.10;100583.84;7391688;19;20102;-68
2023/01/20 03:12:21;;;;;;;46.47;24.17;;;;;;;-0.02;93.02;100586.44;7393522;19;20379;-68
2023/01/20 03:14:50;;;;;;;44.17;23.83;;;;;;;-0.03;93.17;100585.56;7390932;19;20087;-69
2023/01/20 03:17:19;;;;;;;45.75;24.00;;;;;;;-0.02;92.95;100581.28;7392668;19;20397;-69
2023/01/20 03:19:50;;;;;;;44.10;24.73;;;;;;;-0.01;92.99;100583.88;7392508;19;20086;-69
2023/01/20 03:22:19;;;;;;;42.80;24.23;;;;;;;0.00;93.32;100589.94;7394981;19;20078;-69
2023/01/20 03:24:50;;;;;;;50.00;24.38;;;;;;;0.02;93.20;100583.06;7398978;19;20080;-70
2023/01/20 03:27:18;;;;;;;46.63;23.80;;;;;;;0.03;93.35;100595.13;7401884;19;20081;-70
2023/01/20 03:29:46;;;;;;;46.75;25.30;;;;;;;0.05;93.21;100596.03;7398273;19;20091;-69
2023/01/20 03:32:16;;;;;;;52.13;24.42;;;;;;;0.06;92.87;100594.31;7399164;19;20522;-69
2023/01/20 03:34:45;;;;;;;45.92;24.65;;;;;;;0.04;93.01;100596.00;7397307;19;20022;-69
2023/01/20 03:37:16;;;;;;;46.72;25.08;;;;;;;0.00;92.75;100600.25;7397231;19;20082;-69
2023/01/20 03:39:45;;;;;;;38.25;22.27;;;;;;;-0.05;92.30;100602.72;7399946;19;20070;-69
2023/01/20 03:42:18;;;;;;;47.33;24.05;;;;;;;-0.11;92.09;100606.91;7399551;19;20087;-69
2023/01/20 03:45:02;;;;;;;41.20;22.40;;;;;;;-0.16;92.12;100609.38;7397323;19;20088;-69
2023/01/20 03:47:45;;;;;;;42.38;24.55;;;;;;;-0.20;92.24;100613.59;7397627;19;20014;-69
2023/01/20 03:50:22;;;;;;;47.58;24.13;;;;;;;-0.23;92.60;100613.56;7398113;19;20422;-69
2023/01/20 03:53:03;;;;;;;46.50;23.88;;;;;;;-0.24;92.50;100616.06;7396667;19;20079;-69
2023/01/20 03:55:37;;;;;;;53.40;25.25;;;;;;;-0.25;92.37;100622.97;7399790;19;20090;-69
2023/01/20 03:58:10;;;;;;;46.97;24.75;;;;;;;-0.29;92.49;100623.75;7399670;19;20064;-69
2023/01/20 04:00:44;;;;;;;41.37;24.90;;;;;;;-0.31;92.52;100632.28;7398749;19;20010;-67
2023/01/20 04:03:18;;;;;;;47.42;26.42;;;;;;;-0.33;92.58;100637.38;7398136;19;20408;-69
2023/01/20 04:05:48;;;;;;;47.25;25.35;;;;;;;-0.35;92.61;100632.19;7398469;19;20551;-67
2023/01/20 04:08:22;;;;;;;43.80;25.73;;;;;;;-0.34;92.85;100633.09;7398774;19;20018;-69
2023/01/20 04:10:52;;;;;;;50.50;26.45;;;;;;;-0.35;92.67;100639.06;7396244;19;20494;-68
2023/01/20 04:13:20;;;;;;;53.22;25.95;;;;;;;-0.37;92.96;100639.06;7397833;19;20078;-68
2023/01/20 04:15:49;;;;;;;49.58;26.42;;;;;;;-0.40;92.92;100644.13;7398687;19;20095;-68
2023/01/20 04:18:20;;;;;;;48.75;25.60;;;;;;;-0.42;92.79;100643.22;7398586;19;20028;-68
2023/01/20 04:20:53;;;;;;;54.28;26.85;;;;;;;-0.43;92.80;100643.19;7398138;19;20541;-68
2023/01/20 04:23:27;;;;;;;46.47;25.55;;;;;;;-0.43;92.93;100653.50;7397837;19;20031;-68
2023/01/20 04:25:55;;;;;;;50.17;26.05;;;;;;;-0.45;92.88;100650.03;7398864;19;20473;-68
2023/01/20 04:28:24;;;;;;;52.75;27.20;;;;;;;-0.47;92.91;100655.13;7397715;19;20014;-68
2023/01/20 04:30:53;;;;;;;51.55;25.55;;;;;;;-0.47;92.88;100652.56;7395701;19;20489;-68
2023/01/20 04:33:21;;;;;;;45.97;24.02;;;;;;;-0.47;92.87;100656.84;7396958;19;20078;-68
2023/01/20 04:35:50;;;;;;;44.65;24.20;;;;;;;-0.46;93.08;100661.19;7397746;19;20086;-68
2023/01/20 04:38:18;;;;;;;42.50;24.02;;;;;;;-0.48;92.92;100661.16;7397871;19;20098;-68
2023/01/20 04:40:49;;;;;;;53.17;25.13;;;;;;;-0.50;93.00;100658.50;7397685;19;20078;-68
2023/01/20 04:43:18;;;;;;;49.25;25.98;;;;;;;-0.51;93.10;100659.34;7396895;19;20098;-68
2023/01/20 04:45:46;;;;;;;44.40;23.60;;;;;;;-0.53;92.95;100662.72;7397038;19;20078;-68
2023/01/20 04:48:15;;;;;;;46.63;23.75;;;;;;;-0.55;93.09;100673.00;7397127;19;20082;-69
2023/01/20 04:50:43;;;;;;;43.30;24.05;;;;;;;-0.58;93.16;100672.06;7396699;19;20044;-69
2023/01/20 04:53:17;;;;;;;46.55;24.15;;;;;;;-0.60;93.05;100679.78;7396736;19;20014;-68
2023/01/20 04:55:48;;;;;;;49.10;26.00;;;;;;;-0.59;93.16;100675.50;7397819;19;20019;-68
2023/01/20 04:58:17;;;;;;;49.22;26.73;;;;;;;-0.62;93.17;100676.31;7397443;19;20018;-68
2023/01/20 05:00:45;;;;;;;47.15;26.15;;;;;;;-0.65;93.35;100691.69;7397124;19;20014;-68
2023/01/20 05:03:14;;;;;;;52.78;26.23;;;;;;;-0.68;93.17;100683.91;7395781;19;20423;-68
2023/01/20 05:05:42;;;;;;;52.92;27.00;;;;;;;-0.68;93.11;100696.78;7397204;19;20453;-68
2023/01/20 05:08:11;;;;;;;50.60;25.60;;;;;;;-0.67;93.24;100693.34;7396725;19;20023;-68
2023/01/20 05:10:39;;;;;;;52.78;27.35;;;;;;;-0.68;93.40;100697.63;7395366;19;20022;-68
2023/01/20 05:13:10;;;;;;;52.00;25.67;;;;;;;-0.69;93.38;100700.19;7396094;19;20040;-68
2023/01/20 05:15:40;;;;;;;46.42;23.95;;;;;;;-0.70;93.26;100703.59;7395182;19;20027;-68
2023/01/20 05:18:09;;;;;;;48.38;25.83;;;;;;;-0.71;93.09;100710.47;7395939;19;20074;-68
2023/01/20 05:20:37;;;;;;;52.88;26.42;;;;;;;-0.70;93.06;100721.63;7395812;19;20505;-68
2023/01/20 05:23:06;;;;;;;52.88;26.00;;;;;;;-0.69;93.43;100725.94;7395189;19;20014;-68
2023/01/20 05:25:34;;;;;;;52.33;26.67;;;;;;;-0.69;93.39;100728.53;7396329;19;20018;-68
2023/01/20 05:28:03;;;;;;;49.33;25.33;;;;;;;-0.68;93.13;100733.72;7396153;19;20018;-68
2023/01/20 05:30:34;;;;;;;54.28;25.48;;;;;;;-0.69;93.27;100738.84;7394958;19;20039;-68
2023/01/20 05:33:09;;;;;;;47.78;25.98;;;;;;;-0.70;93.34;100731.94;7393817;19;20070;-68
2023/01/20 05:35:39;;;;;;;56.75;27.55;;;;;;;-0.69;93.28;100741.41;7394066;19;20010;-68
2023/01/20 05:38:08;;;;;;;61.65;29.77;;;;;;;-0.74;93.63;100730.97;7394966;19;20027;-67
2023/01/20 05:40:36;;;;;;;54.10;25.15;;;;;;;-0.71;93.39;100738.81;7394934;19;20030;-68
2023/01/20 05:43:05;;;;;;;59.95;28.25;;;;;;;-0.72;93.53;100739.63;7394583;19;20422;-67
2023/01/20 05:45:36;;;;;;;53.88;27.33;;;;;;;-0.71;93.58;100743.06;7394084;19;20011;-67
2023/01/20 05:48:05;;;;;;;62.55;29.80;;;;;;;-0.70;93.57;100747.38;7395778;19;20022;-68
2023/01/20 05:50:33;;;;;;;70.78;33.10;;;;;;;-0.70;93.71;100750.81;7393997;19;20014;-67
2023/01/20 05:53:02;;;;;;;82.93;41.85;;;;;;;-0.71;93.47;100741.38;7393794;19;20026;-69
2023/01/20 05:55:30;;;;;;;68.30;33.83;;;;;;;-0.68;93.36;100753.47;7394955;19;20031;-68
2023/01/20 05:58:02;;;;;;;64.00;30.90;;;;;;;-0.67;93.38;100761.22;7395364;19;20023;-68
2023/01/20 06:00:30;;;;;;;64.07;31.85;;;;;;;-0.64;93.55;100768.16;7394588;19;20011;-68
2023/01/20 06:03:01;;;;;;;59.95;28.48;;;;;;;-0.62;93.50;100774.22;7393103;19;20026;-67
2023/01/20 06:05:30;;;;;;;56.60;29.38;;;;;;;-0.60;93.42;100782.84;7393938;19;20027;-69
2023/01/20 06:07:59;;;;;;;61.88;31.30;;;;;;;-0.59;93.25;100783.75;7393590;19;20015;-68
2023/01/20 06:10:28;;;;;;;57.30;29.65;;;;;;;-0.61;93.49;100785.41;7393279;19;20031;-69
2023/01/20 06:12:57;;;;;;;59.08;29.38;;;;;;;-0.56;93.53;100796.69;7393875;19;20018;-69
2023/01/20 06:15:26;;;;;;;62.42;32.20;;;;;;;-0.56;93.55;100802.69;7393857;19;20018;-68
2023/01/20 06:17:57;;;;;;;63.78;34.30;;;;;;;-0.55;93.26;100806.16;7391606;19;20373;-67
2023/01/20 06:20:29;;;;;;;61.70;32.20;;;;;;;-0.55;93.36;100804.44;7394039;19;20231;-67
2023/01/20 06:22:57;;;;;;;65.45;32.08;;;;;;;-0.54;93.29;100801.03;7392955;19;20057;-68
2023/01/20 06:25:26;;;;;;;61.92;29.60;;;;;;;-0.52;93.54;100803.66;7392721;19;20018;-69
2023/01/20 06:27:54;;;;;;;70.32;32.35;;;;;;;-0.52;93.54;100803.66;7390477;19;20011;-70
2023/01/20 06:30:23;;;;;;;61.05;28.85;;;;;;;-0.51;93.39;100801.09;7391319;19;20498;-69
2023/01/20 06:32:53;;;;;;;68.38;30.30;;;;;;;-0.50;93.67;100809.72;7393647;19;20031;-71
2023/01/20 06:35:22;;;;;;;62.95;29.60;;;;;;;-0.49;93.59;100811.47;7393494;19;20365;-69
2023/01/20 06:37:53;;;;;;;52.30;26.38;;;;;;;-0.47;93.59;100812.38;7393907;19;20034;-70
2023/01/20 06:40:21;;;;;;;52.35;28.45;;;;;;;-0.45;93.33;100827.91;7393436;19;20415;-69
2023/01/20 06:42:50;;;;;;;55.50;26.92;;;;;;;-0.45;93.47;100827.91;7393104;19;20027;-70
2023/01/20 06:45:19;;;;;;;53.85;28.40;;;;;;;-0.44;93.49;100835.66;7393449;19;20510;-71
2023/01/20 06:47:50;;;;;;;63.13;30.65;;;;;;;-0.42;93.36;100835.69;7392063;19;20032;-70
2023/01/20 06:50:19;;;;;;;61.47;30.92;;;;;;;-0.39;93.33;100838.31;7392951;19;20039;-70
2023/01/20 06:52:47;;;;;;;67.20;36.80;;;;;;;-0.38;93.18;100842.66;7392136;19;20422;-70
2023/01/20 06:55:19;;;;;;;65.80;32.28;;;;;;;-0.37;93.32;100845.28;7391531;19;20624;-70
2023/01/20 06:57:47;;;;;;;65.50;31.98;;;;;;;-0.34;93.49;100853.09;7395757;19;20421;-70
2023/01/20 07:00:17;;;;;;;78.05;38.53;;;;;;;-0.34;93.38;100852.22;7398323;19;20019;-69
2023/01/20 07:02:45;;;;;;;128.27;61.45;;;;;;;-0.32;93.36;100855.69;7400917;19;20485;-70
2023/01/20 07:05:21;;;;;;;68.35;35.00;;;;;;;-0.31;93.36;100862.59;7398024;19;20011;-69
2023/01/20 07:07:49;;;;;;;76.65;37.53;;;;;;;-0.30;93.33;100866.94;7401207;19;20026;-69
2023/01/20 07:10:21;;;;;;;82.03;40.20;;;;;;;-0.29;93.28;100870.38;7400184;19;20413;-70
2023/01/20 07:12:49;;;;;;;70.88;33.45;;;;;;;-0.28;93.33;100872.97;7398615;19;20035;-69
2023/01/20 07:15:18;;;;;;;70.03;33.35;;;;;;;-0.28;93.29;100883.28;7400490;19;20022;-70
2023/01/20 07:17:46;;;;;;;62.72;32.35;;;;;;;-0.27;93.27;100885.03;7400594;19;20444;-69
2023/01/20 07:20:15;;;;;;;72.13;32.60;;;;;;;-0.27;93.46;100885.03;7401097;19;20379;-69
2023/01/20 07:22:43;;;;;;;61.63;32.33;;;;;;;-0.26;93.26;100889.38;7400476;19;20031;-69
2023/01/20 07:25:12;;;;;;;63.78;31.50;;;;;;;-0.25;93.24;100893.69;7400197;19;20031;-69
2023/01/20 07:27:43;;;;;;;62.15;32.28;;;;;;;-0.26;93.25;100891.09;7399528;19;20031;-69
2023/01/20 07:30:13;;;;;;;62.50;32.13;;;;;;;-0.27;93.26;100897.09;7399784;19;20361;-69
2023/01/20 07:32:41;;;;;;;62.40;29.00;;;;;;;-0.22;93.27;100903.22;7400162;19;20018;-67
2023/01/20 07:35:10;;;;;;;60.30;30.58;;;;;;;-0.22;93.42;100903.22;7397476;19;20035;-67
2023/01/20 07:37:39;;;;;;;62.38;30.95;;;;;;;-0.21;93.43;100910.13;7397025;19;20501;-69
2023/01/20 07:40:17;;;;;;;59.63;30.50;;;;;;;-0.22;93.18;100908.38;7399237;19;20031;-71
2023/01/20 07:42:48;;;;;;;56.30;30.75;;;;;;;-0.22;93.44;100906.66;7396317;19;20011;-69
2023/01/20 07:45:17;;;;;;;58.75;29.23;;;;;;;-0.24;93.21;100900.63;7399180;19;20394;-69
2023/01/20 07:47:45;;;;;;;57.75;30.00;;;;;;;-0.23;93.15;100910.09;7399127;19;20018;-71
2023/01/20 07:50:14;;;;;;;57.40;28.67;;;;;;;-0.23;93.21;100912.69;7399292;19;20139;-69
2023/01/20 07:52:42;;;;;;;57.83;28.02;;;;;;;-0.23;93.38;100911.78;7398989;19;20010;-69
2023/01/20 07:55:11;;;;;;;64.30;30.45;;;;;;;-0.25;93.37;100909.19;7399013;19;20045;-69
2023/01/20 07:57:39;;;;;;;64.60;30.80;;;;;;;-0.25;93.42;100919.50;7399226;19;20022;-69
2023/01/20 08:00:12;;;;;;;58.70;29.10;;;;;;;-0.27;93.12;100915.13;7398930;19;20027;-70
2023/01/20 08:02:41;;;;;;;60.22;30.88;;;;;;;-0.30;93.10;100921.09;7399599;19;20060;-71
2023/01/20 08:05:10;;;;;;;69.30;31.80;;;;;;;-0.27;93.21;100930.59;7396793;19;20081;-71
2023/01/20 08:07:38;;;;;;;66.50;32.83;;;;;;;-0.26;93.25;100932.34;7398171;19;20036;-72
2023/01/20 08:10:08;;;;;;;63.30;33.05;;;;;;;-0.27;93.51;100941.78;7397386;19;20122;-71
2023/01/20 08:12:36;;;;;;;56.15;30.95;;;;;;;-0.27;93.29;100936.63;7398597;19;20023;-72
2023/01/20 08:15:06;;;;;;;58.92;31.27;;;;;;;-0.27;93.26;100936.63;7398739;19;20022;-72
2023/01/20 08:17:37;;;;;;;61.22;31.17;;;;;;;-0.25;93.39;100944.38;7398793;19;20019;-70
2023/01/20 08:20:06;;;;;;;60.97;31.08;;;;;;;-0.26;93.20;100948.69;7399120;19;20022;-70
2023/01/20 08:22:36;;;;;;;68.95;31.60;;;;;;;-0.25;93.38;100950.44;7398567;19;20035;-71
2023/01/20 08:25:05;;;;;;;65.80;30.98;;;;;;;-0.25;93.28;100949.53;7395991;19;20017;-71
2023/01/20 08:27:33;;;;;;;65.65;29.63;;;;;;;-0.24;93.38;100957.34;7398725;19;20014;-71
2023/01/20 08:30:02;;;;;;;60.35;30.38;;;;;;;-0.25;93.07;100953.00;7398110;19;20031;-71
2023/01/20 08:32:31;;;;;;;64.05;30.52;;;;;;;-0.26;93.31;100959.00;7397739;19;20036;-71
2023/01/20 08:35:02;;;;;;;65.38;30.77;;;;;;;-0.25;93.14;100968.47;7395776;19;20019;-69
2023/01/20 08:37:31;;;;;;;62.55;34.80;;;;;;;-0.26;93.02;100966.72;7397903;19;20023;-70
2023/01/20 08:39:59;;;;;;;60.47;31.33;;;;;;;-0.26;93.29;100964.16;7398144;19;20010;-70
2023/01/20 08:42:28;;;;;;;60.47;28.48;;;;;;;-0.27;93.30;100971.84;7397402;19;20022;-70
2023/01/20 08:44:56;;;;;;;65.88;30.63;;;;;;;-0.26;93.38;100978.78;7395654;19;20047;-70
2023/01/20 08:47:25;;;;;;;63.05;29.70;;;;;;;-0.26;93.29;100984.78;7395272;19;20502;-70
2023/01/20 08:49:54;;;;;;;66.75;29.67;;;;;;;-0.26;93.38;100983.94;7397495;19;20023;-71
2023/01/20 08:52:25;;;;;;;59.30;29.65;;;;;;;-0.25;93.19;100981.38;7395421;19;20038;-70
2023/01/20 08:54:54;;;;;;;56.80;29.20;;;;;;;-0.24;93.36;100989.97;7395493;19;20031;-70
2023/01/20 08:57:23;;;;;;;61.33;30.65;;;;;;;-0.25;93.32;100991.69;7397009;19;20014;-70
2023/01/20 08:59:51;;;;;;;57.13;29.88;;;;;;;-0.24;93.32;101002.88;7397140;19;20082;-70
2023/01/20 09:02:21;;;;;;;56.42;28.95;;;;;;;-0.23;93.34;100991.72;7397065;19;20027;-71
2023/01/20 09:04:50;;;;;;;56.25;27.85;;;;;;;-0.23;93.05;101005.50;7394618;19;20010;-71
2023/01/20 09:07:20;;;;;;;56.10;30.42;;;;;;;-0.23;93.25;101004.63;7397097;19;20018;-71
2023/01/20 09:09:51;;;;;;;53.60;27.02;;;;;;;-0.21;93.34;101011.56;7396568;19;20361;-70
2023/01/20 09:12:19;;;;;;;73.82;38.40;;;;;;;-0.21;93.24;101015.88;7395684;19;20023;-70
2023/01/20 09:14:48;;;;;;;86.03;42.58;;;;;;;-0.21;93.25;101021.03;7394601;19;20371;-70
2023/01/20 09:17:16;;;;;;;58.85;29.58;;;;;;;-0.20;93.35;101028.78;7396262;19;20086;-70
2023/01/20 09:19:45;;;;;;;55.50;29.45;;;;;;;-0.19;93.28;101033.13;7395702;19;20015;-70
2023/01/20 09:22:13;;;;;;;57.42;27.35;;;;;;;-0.18;93.29;101032.28;7394945;19;20018;-70
2023/01/20 09:24:42;;;;;;;56.45;27.30;;;;;;;-0.14;93.33;101038.38;7394295;19;20035;-71
2023/01/20 09:27:13;;;;;;;54.17;27.40;;;;;;;-0.12;93.15;101033.28;7395906;19;20370;-70
2023/01/20 09:29:41;;;;;;;52.08;25.85;;;;;;;-0.09;93.00;101047.16;7396643;19;20422;-70
2023/01/20 09:32:10;;;;;;;46.55;26.40;;;;;;;-0.06;93.14;101043.78;7394656;19;20081;-71
2023/01/20 09:34:39;;;;;;;48.10;25.85;;;;;;;-0.03;93.10;101038.69;7394237;19;20039;-71
2023/01/20 09:45:29;;;;;;;43.78;23.33;;;;;;;0.10;92.79;101063.09;7396489;19;20010;-71
2023/01/20 09:48:13;;;;;;;44.95;23.42;;;;;;;0.15;92.79;101069.25;7396164;19;20018;-71
2023/01/20 09:53:49;;;;;;;43.50;22.92;;;;;;;0.29;92.72;101080.81;7394365;19;20019;-70
2023/01/20 09:56:20;;;;;;;42.42;21.52;;;;;;;0.35;92.29;101072.34;7394941;19;20048;-70
2023/01/20 09:58:59;;;;;;;42.40;22.45;;;;;;;0.45;92.36;101071.72;7395964;19;20022;-71
2023/01/20 10:01:32;;;;;;;50.20;24.27;;;;;;;0.56;91.82;101078.91;7396113;19;20011;-71
2023/01/20 10:04:07;;;;;;;49.45;27.67;;;;;;;0.62;91.79;101081.59;7393499;19;20014;-70
2023/01/20 10:06:46;;;;;;;57.75;31.05;;;;;;;0.65;91.40;101077.38;7393797;19;20014;-70
2023/01/20 10:09:24;;;;;;;53.25;27.05;;;;;;;0.69;91.55;101080.06;7395165;19;20026;-70
2023/01/20 10:11:58;;;;;;;48.72;24.58;;;;;;;0.73;91.47;101080.16;7393755;19;20031;-70
2023/01/20 10:14:35;;;;;;;43.53;24.73;;;;;;;0.79;91.01;101084.59;7393156;19;20383;-70
2023/01/20 10:17:10;;;;;;;40.88;21.65;;;;;;;0.80;90.71;101082.03;7394875;19;20082;-70
2023/01/20 10:19:50;;;;;;;41.83;22.85;;;;;;;0.81;89.72;101082.94;7395137;19;20018;-71
2023/01/20 10:22:22;;;;;;;37.13;21.88;;;;;;;0.80;90.00;101094.97;7392773;19;20532;-70
2023/01/20 10:24:55;;;;;;;37.78;21.23;;;;;;;0.79;89.30;101090.63;7393215;19;20036;-70
2023/01/20 10:27:27;;;;;;;37.10;21.75;;;;;;;0.78;87.88;101086.31;7394670;19;20016;-70
2023/01/20 10:30:05;;;;;;;35.30;21.67;;;;;;;0.72;86.90;101088.75;7395292;19;20019;-70
2023/01/20 10:32:36;;;;;;;38.63;21.13;;;;;;;0.69;87.25;101095.56;7395956;19;20018;-70
2023/01/20 10:35:14;;;;;;;38.25;21.88;;;;;;;0.66;88.51;101096.34;7401402;19;20377;-70
2023/01/20 10:37:43;;;;;;;42.47;22.75;;;;;;;0.67;88.69;101092.94;7402769;19;20074;-70
2023/01/20 10:40:25;;;;;;;38.45;23.50;;;;;;;0.66;88.58;101093.78;7401572;19;20018;-71
2023/01/20 10:42:57;;;;;;;40.80;22.05;;;;;;;0.65;87.87;101092.88;7401058;19;20014;-70
2023/01/20 10:45:34;;;;;;;40.63;23.20;;;;;;;0.64;88.08;101093.75;7402170;19;20031;-70
2023/01/20 10:48:12;;;;;;;46.15;23.10;;;;;;;0.62;88.08;101091.94;7401125;19;20407;-72
2023/01/20 10:50:50;;;;;;;48.45;24.90;;;;;;;0.61;88.51;101091.06;7402151;19;20014;-71
2023/01/20 10:53:40;;;;;;;50.38;26.50;;;;;;;0.63;87.78;101088.50;7399622;19;20047;-70
2023/01/20 10:56:21;;;;;;;40.67;22.13;;;;;;;0.64;88.11;101085.09;7401968;19;20032;-71
2023/01/20 10:58:50;;;;;;;46.60;22.65;;;;;;;0.64;86.99;101098.00;7400564;19;20477;-70
2023/01/20 11:01:21;;;;;;;40.53;23.13;;;;;;;0.63;86.58;101091.09;7401121;19;20082;-70
2023/01/20 11:03:51;;;;;;;43.13;22.77;;;;;;;0.59;87.28;101084.97;7398851;19;20510;-70
2023/01/20 11:06:28;;;;;;;39.58;23.65;;;;;;;0.61;87.58;101098.81;7396865;19;20019;-70
2023/01/20 11:08:58;;;;;;;44.65;24.08;;;;;;;0.63;87.06;101097.16;7401416;19;20011;-71
2023/01/20 11:11:28;;;;;;;39.72;23.30;;;;;;;0.63;87.19;101094.56;7399466;19;20517;-71
2023/01/20 11:13:58;;;;;;;38.95;22.00;;;;;;;0.63;85.62;101101.44;7399238;19;20019;-70
2023/01/20 11:16:30;;;;;;;41.80;23.50;;;;;;;0.63;86.76;101098.84;7400196;19;20369;-70
2023/01/20 11:19:01;;;;;;;39.95;20.60;;;;;;;0.66;86.30;101098.94;7401156;19;20082;-70
2023/01/20 11:21:34;;;;;;;35.88;19.98;;;;;;;0.70;86.68;101105.06;7402149;19;20431;-71
2023/01/20 11:24:03;;;;;;;38.53;21.87;;;;;;;0.72;85.73;101099.09;7399437;19;20015;-72
2023/01/20 11:26:34;;;;;;;43.83;22.63;;;;;;;0.75;86.37;101098.28;7399853;19;20031;-71
2023/01/20 11:29:05;;;;;;;37.53;20.73;;;;;;;0.73;85.25;101090.47;7400317;19;20022;-71
2023/01/20 11:31:42;;;;;;;35.20;20.95;;;;;;;0.80;84.93;101107.03;7399014;19;20021;-69
2023/01/20 11:34:24;;;;;;;41.00;20.77;;;;;;;0.77;84.07;101102.66;7398171;19;20096;-70
2023/01/20 11:37:13;;;;;;;38.33;19.23;;;;;;;0.83;84.99;101106.22;7400164;19;20372;-70
2023/01/20 11:39:46;;;;;;;38.55;20.20;;;;;;;0.84;84.72;101102.81;7400001;19;20031;-70
2023/01/20 11:42:19;;;;;;;37.80;21.95;;;;;;;0.86;84.57;101102.00;7399325;19;20031;-70